1933 NOT_NAMED (1933185N08135)


IBTrACS version v04r00. Visit IBTrACS website for data access.
Please direct all questions to the IBTrACS Q and A forum

Storm track - Intensity - Wind Radii - Intensity Data - Source Data - All data

Summary Information

Storm ID 1933185N08135
Start Jul 3 22Z
End Jul 5 22Z
ATCF IDs
Track status Best track data.

Storm track plot

Map of storm track

Intensity plots

No Intensity information for this storm


Radial wind information

No radial wind information for this storm


Position and Intensity Table

BASIN ISO_TIME_________ NATURE LAT LON
degrees north degrees east
WP 1933-07-03 22:00:00 NR 8.20 135.30
WP 1933-07-04 00:00:00 NR 8.86 135.20
WP 03:00:00 NR 9.85 135.05
WP 06:00:00 NR 10.80 134.88
WP 09:00:00 NR 11.71 134.67
WP 10:00:00 NR 12.00 134.60
WP 12:00:00 NR 12.55 134.44
WP 15:00:00 NR 13.32 134.15
WP 18:00:00 NR 14.02 133.82
WP 21:00:00 NR 14.62 133.44
WP 22:00:00 NR 14.80 133.30
WP 1933-07-05 00:00:00 NR 15.15 133.02
WP 03:00:00 NR 15.61 132.57
WP 06:00:00 NR 15.99 132.06
WP 09:00:00 NR 16.30 131.50
WP 10:00:00 NR 16.40 131.30
WP 12:00:00 NR 16.58 130.89
WP 15:00:00 NR 16.82 130.23
WP 18:00:00 NR 17.03 129.54
WP 21:00:00 NR 17.23 128.84
WP 22:00:00 NR 17.30 128.60

Source Information

Agency Information
USA
TOKYO
CMA
HKO
NEWDELHI
REUNION
BOM
NADI
WELLINGTON
DS824
TD9636 cons_worldwide_trop_cyclone_18710101-19891231-003:Line=9309
TD9635
NEUMANN
MLC

All available IBTrACS Data

SEASON BASIN SUBBASIN ISO_TIME_________ NATURE LAT LON DIST2LAND LANDFALL IFLAG USA SSHS TD9636 LAT TD9636 LON TD9636 STAGE STORM SPEED STORM DIR
Year degrees north degrees east km km 1 degrees north degrees east kts degrees
1933 WP MM 1933-07-03 22:00:00 NR 8.20 135.30 960 952 __________O___ -1 8.20 135.30 7 20 352
1933 WP MM 1933-07-04 00:00:00 NR 8.86 135.20 956 950 __________P___ -1 8.86 135.20 7 20 351
1933 WP MM 03:00:00 NR 9.85 135.05 953 956 __________P___ -1 9.85 135.05 7 20 351
1933 WP MM 06:00:00 NR 10.80 134.88 969 962 __________P___ -1 10.80 134.88 7 19 349
1933 WP MM 09:00:00 NR 11.71 134.67 971 964 __________P___ -1 11.71 134.67 7 19 347
1933 WP MM 10:00:00 NR 12.00 134.60 966 953 __________O___ -1 12.00 134.60 7 18 345
1933 WP MM 12:00:00 NR 12.55 134.44 953 943 __________P___ -1 12.55 134.44 7 17 342
1933 WP MM 15:00:00 NR 13.32 134.15 949 921 __________P___ -1 13.32 134.15 7 16 338
1933 WP MM 18:00:00 NR 14.02 133.82 921 896 __________P___ -1 14.02 133.82 7 15 332
1933 WP MM 21:00:00 NR 14.62 133.44 896 889 __________P___ -1 14.62 133.44 7 14 327
1933 WP MM 22:00:00 NR 14.80 133.30 892 873 __________O___ -1 14.80 133.30 7 13 323
1933 WP MM 1933-07-05 00:00:00 NR 15.15 133.02 877 851 __________P___ -1 15.15 133.02 7 13 319
1933 WP MM 03:00:00 NR 15.61 132.57 855 823 __________P___ -1 15.61 132.57 7 13 312
1933 WP MM 06:00:00 NR 15.99 132.06 829 793 __________P___ -1 15.99 132.06 7 12 304
1933 WP MM 09:00:00 NR 16.30 131.50 793 782 __________P___ -1 16.30 131.50 7 13 300
1933 WP MM 10:00:00 NR 16.40 131.30 782 760 __________O___ -1 16.40 131.30 7 13 295
1933 WP MM 12:00:00 NR 16.58 130.89 760 701 __________P___ -1 16.58 130.89 7 13 292
1933 WP MM 15:00:00 NR 16.82 130.23 701 647 __________P___ -1 16.82 130.23 7 14 290
1933 WP MM 18:00:00 NR 17.03 129.54 647 598 __________P___ -1 17.03 129.54 7 14 287
1933 WP MM 21:00:00 NR 17.23 128.84 598 589 __________P___ -1 17.23 128.84 7 14 286
1933 WP MM 22:00:00 NR 17.30 128.60 589 __________O___ -1 17.30 128.60 7 14 286